createdAt,value
2022-11-22T00:00:20.974Z,13.52
2022-11-22T00:02:47.520Z,13.55
2022-11-22T00:05:14.786Z,14.50
2022-11-22T00:07:41.439Z,14.60
2022-11-22T00:10:11.046Z,14.75
2022-11-22T00:12:39.113Z,15.73
2022-11-22T00:15:07.619Z,15.07
2022-11-22T00:17:35.008Z,15.13
2022-11-22T00:20:01.847Z,14.98
2022-11-22T00:22:28.349Z,15.68
2022-11-22T00:24:54.895Z,15.50
2022-11-22T00:27:21.890Z,14.98
2022-11-22T00:32:14.796Z,16.48
2022-11-22T00:34:41.408Z,16.13
2022-11-22T00:37:08.061Z,15.45
2022-11-22T00:39:35.056Z,16.02
2022-11-22T00:46:54.997Z,14.25
2022-11-22T00:49:21.841Z,15.32
2022-11-22T00:51:48.457Z,15.75
2022-11-22T00:54:14.955Z,16.42
2022-11-22T00:56:41.517Z,14.25
2022-11-22T00:59:08.388Z,14.73
2022-11-22T01:01:34.960Z,14.68
2022-11-22T01:04:01.560Z,15.98
2022-11-22T01:06:28.106Z,14.93
2022-11-22T01:08:54.674Z,15.38
2022-11-22T01:11:21.523Z,14.60
2022-11-22T01:13:48.093Z,14.98
2022-11-22T01:16:15.181Z,15.63
2022-11-22T01:21:08.652Z,14.40
2022-11-22T01:26:02.456Z,13.53
2022-11-22T01:28:29.450Z,14.75
2022-11-22T01:33:22.865Z,13.68
2022-11-22T01:35:49.487Z,15.35
2022-11-22T01:38:16.515Z,14.52
2022-11-22T01:43:35.753Z,15.00
2022-11-22T01:46:07.633Z,14.98
2022-11-22T01:48:55.578Z,15.90
2022-11-22T01:51:28.380Z,13.93
2022-11-22T01:54:00.570Z,15.47
2022-11-22T01:56:30.209Z,14.83
2022-11-22T01:59:00.156Z,15.52
2022-11-22T02:01:28.615Z,16.00
2022-11-22T02:03:59.298Z,15.63
2022-11-22T02:06:34.265Z,15.25
2022-11-22T02:09:09.959Z,15.93
2022-11-22T02:11:39.973Z,15.27
2022-11-22T02:14:08.914Z,15.63
2022-11-22T02:16:37.278Z,13.93
2022-11-22T02:19:05.599Z,15.00
2022-11-22T02:21:32.112Z,14.93
2022-11-22T02:24:13.040Z,15.88
2022-11-22T02:26:39.632Z,14.93
2022-11-22T02:29:07.822Z,15.75
2022-11-22T02:31:34.674Z,15.77
2022-11-22T02:34:01.913Z,15.98
2022-11-22T02:36:30.523Z,15.15
2022-11-22T02:38:57.398Z,15.33
2022-11-22T02:41:24.026Z,14.73
2022-11-22T02:43:50.696Z,15.93
2022-11-22T02:46:20.858Z,15.02
2022-11-22T02:48:47.837Z,16.43
2022-11-22T02:51:17.120Z,16.70
2022-11-22T02:53:44.579Z,15.83
2022-11-22T02:56:11.107Z,17.50
2022-11-22T02:58:37.920Z,16.65
2022-11-22T03:01:05.025Z,16.60
2022-11-22T03:03:32.543Z,17.10
2022-11-22T03:05:59.114Z,16.00
2022-11-22T03:08:25.586Z,16.60
2022-11-22T03:10:52.203Z,17.33
2022-11-22T03:13:18.694Z,17.20
2022-11-22T03:15:48.556Z,17.55
2022-11-22T03:18:15.059Z,17.00
2022-11-22T03:20:41.640Z,13.75
2022-11-22T03:23:08.182Z,17.73
2022-11-22T03:25:38.131Z,17.55
2022-11-22T03:28:04.791Z,17.60
2022-11-22T03:30:31.684Z,17.70
2022-11-22T03:32:58.213Z,19.08
2022-11-22T03:35:24.706Z,18.77
2022-11-22T03:37:51.210Z,17.40
2022-11-22T03:40:17.812Z,17.42
2022-11-22T03:42:44.325Z,16.77
2022-11-22T03:45:11.084Z,16.02
2022-11-22T03:47:37.715Z,17.95
2022-11-22T03:50:05.280Z,17.90
2022-11-22T03:52:31.807Z,17.25
2022-11-22T03:54:58.291Z,17.25
2022-11-22T03:57:24.813Z,17.65
2022-11-22T03:59:51.277Z,17.55
2022-11-22T04:02:17.813Z,18.02
2022-11-22T04:04:44.320Z,18.02
2022-11-22T04:07:10.887Z,18.23
2022-11-22T04:09:37.513Z,17.67
2022-11-22T04:12:04.521Z,16.58
2022-11-22T04:17:41.492Z,17.00
2022-11-22T04:20:29.088Z,17.67
2022-11-22T04:23:17.298Z,17.97
2022-11-22T04:25:46.396Z,18.20
2022-11-22T04:28:14.748Z,16.50
2022-11-22T04:30:59.836Z,16.23
2022-11-22T04:33:26.422Z,18.05
2022-11-22T04:35:53.519Z,16.55
2022-11-22T04:38:20.484Z,17.75
2022-11-22T04:43:44.762Z,16.57
2022-11-22T04:46:12.268Z,16.73
2022-11-22T04:48:38.980Z,17.57
2022-11-22T04:51:25.736Z,17.25
2022-11-22T04:53:52.455Z,17.93
2022-11-22T04:56:19.674Z,17.13
2022-11-22T04:58:46.201Z,17.42
2022-11-22T05:01:12.888Z,17.33
2022-11-22T05:03:39.451Z,16.90
2022-11-22T05:06:06.166Z,16.58
2022-11-22T05:08:32.985Z,16.20
2022-11-22T05:11:00.055Z,16.33
2022-11-22T05:13:29.122Z,18.10
2022-11-22T05:15:56.494Z,15.70
2022-11-22T05:18:24.238Z,16.27
2022-11-22T05:20:51.168Z,15.88
2022-11-22T05:26:03.485Z,16.52
2022-11-22T05:28:31.576Z,15.90
2022-11-22T05:30:58.528Z,16.75
2022-11-22T05:33:25.572Z,16.42
2022-11-22T05:35:52.185Z,15.95
2022-11-22T05:38:18.666Z,15.63
2022-11-22T05:40:45.186Z,15.90
2022-11-22T05:43:11.753Z,16.60
2022-11-22T05:45:38.406Z,16.77
2022-11-22T05:48:05.053Z,15.98
2022-11-22T05:50:31.628Z,15.23
2022-11-22T05:53:01.900Z,16.52
2022-11-22T05:55:29.467Z,16.63
2022-11-22T05:57:59.200Z,16.23
2022-11-22T06:00:25.737Z,18.07
2022-11-22T06:02:52.257Z,16.48
2022-11-22T06:05:18.812Z,12.25
2022-11-22T06:07:45.856Z,17.17
2022-11-22T06:10:12.407Z,16.58
2022-11-22T06:12:38.945Z,16.60
2022-11-22T06:15:05.837Z,16.33
2022-11-22T06:17:32.451Z,16.95
2022-11-22T06:20:04.162Z,16.55
2022-11-22T06:22:32.572Z,16.33
2022-11-22T06:24:59.142Z,16.73
2022-11-22T06:27:25.688Z,16.83
2022-11-22T06:29:52.253Z,12.95
2022-11-22T06:32:18.834Z,17.23
2022-11-22T06:34:45.382Z,17.15
2022-11-22T06:37:16.219Z,17.65
2022-11-22T06:39:42.770Z,16.38
2022-11-22T06:42:09.309Z,13.55
2022-11-22T06:44:35.825Z,17.17
2022-11-22T06:47:02.372Z,16.20
2022-11-22T06:49:29.241Z,16.85
2022-11-22T06:51:56.101Z,16.40
2022-11-22T06:54:22.581Z,17.00
2022-11-22T06:56:49.062Z,16.85
2022-11-22T06:59:15.652Z,15.02
2022-11-22T07:01:42.346Z,16.17
2022-11-22T07:04:08.951Z,15.85
2022-11-22T07:06:38.638Z,15.68
2022-11-22T07:09:11.430Z,16.52
2022-11-22T07:11:39.534Z,16.38
2022-11-22T07:14:08.603Z,16.70
2022-11-22T07:16:36.731Z,17.02
2022-11-22T07:19:03.853Z,16.63
2022-11-22T07:21:30.592Z,15.98
2022-11-22T07:23:57.180Z,17.23
2022-11-22T07:26:26.040Z,16.13
2022-11-22T07:28:52.782Z,15.45
2022-11-22T07:31:19.454Z,16.55
2022-11-22T07:33:46.597Z,16.60
2022-11-22T07:36:18.791Z,17.20
2022-11-22T07:38:45.965Z,15.70
2022-11-22T07:41:13.566Z,16.52
2022-11-22T07:43:40.217Z,16.75
2022-11-22T07:46:13.579Z,16.98
2022-11-22T07:48:40.037Z,17.17
2022-11-22T07:51:08.028Z,18.50
2022-11-22T07:53:35.947Z,16.25
2022-11-22T07:56:04.761Z,17.67
2022-11-22T07:58:32.045Z,17.00
2022-11-22T08:00:58.604Z,16.75
2022-11-22T08:03:28.852Z,18.52
2022-11-22T08:06:03.786Z,16.83
2022-11-22T08:08:30.654Z,16.00
2022-11-22T08:10:57.238Z,17.85
2022-11-22T08:13:24.746Z,15.95
2022-11-22T08:15:54.388Z,17.15
2022-11-22T08:18:21.924Z,16.92
2022-11-22T08:23:15.145Z,16.25
2022-11-22T08:25:41.671Z,17.38
2022-11-22T08:28:08.159Z,16.38
2022-11-22T08:30:34.654Z,17.25
2022-11-22T08:33:01.440Z,17.15
2022-11-22T08:35:28.064Z,17.35
2022-11-22T08:37:58.497Z,16.20
2022-11-22T08:40:25.250Z,16.45
2022-11-22T08:42:54.857Z,17.15
2022-11-22T08:45:21.409Z,16.15
2022-11-22T08:47:49.166Z,17.73
2022-11-22T08:50:17.800Z,17.63
2022-11-22T08:52:44.624Z,17.95
2022-11-22T08:55:11.273Z,17.67
2022-11-22T08:57:37.816Z,19.10
2022-11-22T09:00:06.317Z,14.65
2022-11-22T09:02:33.060Z,18.45
2022-11-22T09:04:59.673Z,18.08
2022-11-22T09:10:13.149Z,17.40
2022-11-22T09:12:44.697Z,18.27
2022-11-22T09:15:12.033Z,17.63
2022-11-22T09:17:39.064Z,18.15
2022-11-22T09:22:34.515Z,16.27
2022-11-22T09:25:01.770Z,16.48
2022-11-22T09:27:28.616Z,18.02
2022-11-22T09:29:55.238Z,17.08
2022-11-22T09:32:21.858Z,17.17
2022-11-22T09:34:48.587Z,16.73
2022-11-22T09:37:18.491Z,16.90
2022-11-22T09:39:48.444Z,15.77
2022-11-22T09:45:25.493Z,16.48
2022-11-22T09:48:10.535Z,17.10
2022-11-22T09:50:59.840Z,17.38
2022-11-22T09:53:35.324Z,14.98
2022-11-22T09:56:08.110Z,16.73
2022-11-22T09:58:51.667Z,15.60
2022-11-22T10:01:24.100Z,15.88
2022-11-22T10:04:10.522Z,16.05
2022-11-22T10:07:00.530Z,15.13
2022-11-22T10:09:42.338Z,16.80
2022-11-22T10:12:16.725Z,17.40
2022-11-22T10:14:54.091Z,16.58
2022-11-22T10:17:35.938Z,14.73
2022-11-22T10:20:05.878Z,15.13
2022-11-22T10:22:33.763Z,14.35
2022-11-22T10:25:02.727Z,15.57
2022-11-22T10:27:32.871Z,13.68
2022-11-22T10:30:07.260Z,14.10
2022-11-22T10:33:09.196Z,13.10
2022-11-22T10:35:50.368Z,11.85
2022-11-22T10:38:26.752Z,12.38
2022-11-22T10:41:11.936Z,12.20
2022-11-22T10:44:01.286Z,11.75
2022-11-22T10:46:56.521Z,12.18
2022-11-22T10:49:48.011Z,12.13
2022-11-22T10:52:20.665Z,11.48
2022-11-22T10:55:09.032Z,11.25
2022-11-22T10:58:05.185Z,12.55
2022-11-22T11:00:36.390Z,12.60
2022-11-22T11:03:16.812Z,12.23
2022-11-22T11:06:21.138Z,12.02
2022-11-22T11:09:16.870Z,12.82
2022-11-22T11:11:30.285Z,12.70
2022-11-22T11:14:04.847Z,12.65
2022-11-22T11:16:35.781Z,13.95
2022-11-22T11:19:05.067Z,12.38
2022-11-22T11:21:31.636Z,11.82
2022-11-22T11:23:58.117Z,12.85
2022-11-22T11:26:28.298Z,13.52
2022-11-22T11:29:19.424Z,12.93
2022-11-22T11:31:50.919Z,11.68
2022-11-22T11:34:27.882Z,12.23
2022-11-22T11:36:57.056Z,13.48
2022-11-22T11:39:28.967Z,11.40
2022-11-22T11:41:56.697Z,13.07
2022-11-22T11:47:06.088Z,11.75
2022-11-22T11:49:34.739Z,12.10
2022-11-22T11:52:22.459Z,11.35
2022-11-22T11:54:54.225Z,11.85
2022-11-22T11:57:49.988Z,11.88
2022-11-22T12:00:28.045Z,12.68
2022-11-22T12:03:00.904Z,12.20
2022-11-22T12:05:30.783Z,12.20
2022-11-22T12:07:57.461Z,11.77
2022-11-22T12:10:48.828Z,11.48
2022-11-22T12:13:18.337Z,12.18
2022-11-22T12:15:57.102Z,12.35
2022-11-22T12:18:39.068Z,11.80
2022-11-22T12:21:41.104Z,12.57
2022-11-22T12:25:09.359Z,12.18
2022-11-22T12:27:16.804Z,12.60
2022-11-22T12:29:46.512Z,12.98
2022-11-22T12:32:27.774Z,13.15
2022-11-22T12:35:05.560Z,13.13
2022-11-22T12:37:40.324Z,13.43
2022-11-22T12:40:17.833Z,13.32
2022-11-22T12:42:51.930Z,12.95
2022-11-22T12:45:35.284Z,13.38
2022-11-22T12:48:09.579Z,12.50
2022-11-22T12:50:53.976Z,13.52
2022-11-22T12:53:30.665Z,12.73
2022-11-22T12:56:34.592Z,12.93
2022-11-22T12:59:15.068Z,13.00
2022-11-22T13:01:41.704Z,12.57
2022-11-22T13:04:11.390Z,14.05
2022-11-22T13:06:58.835Z,13.82
2022-11-22T13:09:33.383Z,13.65
2022-11-22T13:12:02.601Z,13.27
2022-11-22T13:14:54.085Z,13.00
2022-11-22T13:17:22.755Z,13.85
2022-11-22T13:19:54.352Z,14.27
2022-11-22T13:22:34.707Z,14.73
2022-11-22T13:25:26.036Z,14.73
2022-11-22T13:27:54.282Z,14.27
2022-11-22T13:30:24.851Z,15.25
2022-11-22T13:32:57.366Z,15.63
2022-11-22T13:35:31.059Z,14.50
2022-11-22T13:38:02.619Z,14.70
2022-11-22T13:40:33.414Z,16.30
2022-11-22T13:43:15.573Z,15.88
2022-11-22T13:45:47.668Z,16.60
2022-11-22T13:48:14.490Z,14.43
2022-11-22T13:50:40.970Z,16.40
2022-11-22T13:53:19.488Z,16.00
2022-11-22T13:55:47.026Z,15.57
2022-11-22T13:58:25.868Z,15.75
2022-11-22T14:00:54.510Z,16.15
2022-11-22T14:03:28.030Z,16.13
2022-11-22T14:05:57.886Z,14.13
2022-11-22T14:08:29.829Z,15.77
2022-11-22T14:10:56.448Z,15.10
2022-11-22T14:13:34.976Z,15.35
2022-11-22T14:16:21.665Z,14.40
2022-11-22T14:19:04.655Z,15.52
2022-11-22T14:21:50.148Z,16.17
2022-11-22T14:24:52.183Z,15.32
2022-11-22T14:27:36.837Z,15.57
2022-11-22T14:30:18.726Z,16.00
2022-11-22T14:32:50.385Z,15.07
2022-11-22T14:35:29.476Z,15.57
2022-11-22T14:38:17.661Z,14.27
2022-11-22T14:40:44.243Z,15.40
2022-11-22T14:43:32.536Z,15.55
2022-11-22T14:46:24.366Z,14.73
2022-11-22T14:49:03.260Z,14.93
2022-11-22T14:51:32.625Z,14.85
2022-11-22T14:54:14.050Z,16.42
2022-11-22T14:56:43.362Z,14.63
2022-11-22T14:59:40.561Z,16.17
2022-11-22T15:02:09.209Z,16.80
2022-11-22T15:09:14.912Z,17.70
2022-11-22T15:09:15.363Z,16.80
2022-11-22T15:11:08.460Z,17.17
2022-11-22T15:14:12.083Z,16.60
2022-11-22T15:57:32.336Z,18.90
2022-11-22T15:59:59.780Z,19.33
2022-11-22T16:02:33.207Z,18.63
2022-11-22T16:06:08.217Z,18.85
2022-11-22T16:07:56.483Z,21.08
2022-11-22T16:10:38.959Z,20.05
2022-11-22T16:13:11.941Z,20.03
2022-11-22T16:15:39.095Z,19.80
2022-11-22T16:18:27.356Z,17.98
2022-11-22T16:21:12.063Z,19.48
2022-11-22T16:23:42.618Z,17.27
2022-11-22T16:26:17.962Z,19.25
2022-11-22T16:28:45.407Z,19.25
2022-11-22T16:31:21.223Z,18.33
2022-11-22T16:33:47.927Z,18.80
2022-11-22T16:36:16.425Z,20.40
2022-11-22T16:38:43.836Z,20.80
2022-11-22T16:41:17.324Z,21.23
2022-11-22T16:43:44.109Z,19.75
2022-11-22T16:46:13.747Z,20.90
2022-11-22T16:48:41.177Z,21.63
2022-11-22T16:51:13.944Z,21.52
2022-11-22T16:53:40.413Z,20.90
2022-11-22T16:56:07.470Z,20.90
2022-11-22T16:58:34.088Z,23.13
2022-11-22T17:01:01.161Z,22.48
2022-11-22T17:03:33.691Z,21.92
2022-11-22T17:06:00.309Z,22.02
2022-11-22T17:08:26.826Z,23.95
2022-11-22T17:10:53.456Z,23.38
2022-11-22T17:13:25.546Z,23.58
2022-11-22T17:15:53.535Z,22.90
2022-11-22T17:18:20.590Z,21.80
2022-11-22T17:23:36.636Z,21.52
2022-11-22T17:26:04.629Z,23.08
2022-11-22T17:28:31.396Z,23.00
2022-11-22T17:31:01.840Z,23.17
2022-11-22T17:33:28.945Z,22.02
2022-11-22T17:40:50.210Z,22.52
2022-11-22T17:43:16.889Z,21.17
2022-11-22T17:45:43.847Z,20.17
2022-11-22T17:50:38.591Z,21.60
2022-11-22T17:53:05.334Z,24.02
2022-11-22T17:55:48.408Z,22.20
2022-11-22T17:58:18.401Z,21.58
2022-11-22T18:00:44.887Z,22.77
2022-11-22T18:03:11.505Z,23.98
2022-11-22T18:05:38.029Z,23.13
2022-11-22T18:08:04.769Z,24.30
2022-11-22T18:10:31.403Z,23.95
2022-11-22T18:13:20.422Z,22.30
2022-11-22T18:15:45.193Z,23.38
2022-11-22T18:18:33.264Z,24.40
2022-11-22T18:20:58.617Z,23.40
2022-11-22T18:23:26.504Z,21.45
2022-11-22T18:25:58.489Z,23.70
2022-11-22T18:28:37.925Z,21.23
2022-11-22T18:36:26.606Z,20.52
2022-11-22T18:38:55.838Z,19.67
2022-11-22T18:41:22.493Z,20.00
2022-11-22T18:43:49.082Z,20.40
2022-11-22T18:46:15.727Z,20.15
2022-11-22T18:48:42.245Z,21.23
2022-11-22T18:51:10.571Z,19.95
2022-11-22T18:53:39.163Z,20.92
2022-11-22T18:56:11.278Z,22.23
2022-11-22T18:58:38.389Z,20.40
2022-11-22T19:01:12.408Z,21.85
2022-11-22T19:03:39.178Z,21.00
2022-11-22T19:06:12.424Z,20.65
2022-11-22T19:08:40.226Z,22.30
2022-11-22T19:11:07.722Z,20.02
2022-11-22T19:13:35.982Z,21.45
2022-11-22T19:16:07.821Z,19.90
2022-11-22T19:18:41.284Z,20.35
2022-11-22T19:21:18.019Z,19.38
2022-11-22T19:23:44.861Z,20.08
2022-11-22T19:26:20.606Z,20.13
2022-11-22T19:28:48.349Z,21.30
2022-11-22T19:31:20.130Z,21.27
2022-11-22T19:33:47.315Z,19.90
2022-11-22T19:36:19.637Z,20.23
2022-11-22T19:38:46.580Z,20.58
2022-11-22T19:41:16.812Z,20.13
2022-11-22T19:43:43.969Z,22.08
2022-11-22T19:46:10.880Z,21.58
2022-11-22T19:48:39.128Z,20.13
2022-11-22T19:51:11.465Z,20.90
2022-11-22T19:53:39.004Z,21.73
2022-11-22T19:56:08.007Z,22.20
2022-11-22T19:58:34.899Z,22.17
2022-11-22T20:01:12.351Z,21.98
2022-11-22T20:03:41.647Z,21.67
2022-11-22T20:06:10.133Z,22.98
2022-11-22T20:08:37.392Z,22.65
2022-11-22T20:11:06.975Z,22.35
2022-11-22T20:13:36.366Z,21.73
2022-11-22T20:16:11.425Z,20.02
2022-11-22T20:18:38.392Z,21.67
2022-11-22T20:21:06.366Z,22.30
2022-11-22T20:23:33.701Z,22.63
2022-11-22T20:26:09.133Z,22.00
2022-11-22T20:28:40.011Z,23.08
2022-11-22T20:31:09.565Z,21.40
2022-11-22T20:33:38.123Z,23.33
2022-11-22T20:36:06.370Z,23.52
2022-11-22T20:38:34.583Z,23.27
2022-11-22T20:41:01.114Z,22.63
2022-11-22T20:43:29.935Z,22.40
2022-11-22T20:46:07.155Z,22.63
2022-11-22T20:48:34.804Z,23.77
2022-11-22T20:51:03.806Z,22.63
2022-11-22T20:53:30.279Z,21.45
2022-11-22T20:55:56.875Z,21.23
2022-11-22T20:58:24.749Z,23.08
2022-11-22T21:00:51.972Z,19.90
2022-11-22T21:03:19.040Z,21.48
2022-11-22T21:08:13.342Z,19.35
2022-11-22T21:10:39.931Z,20.52
2022-11-22T21:13:06.788Z,22.02
2022-11-22T21:15:33.296Z,20.85
2022-11-22T21:18:24.326Z,20.90
2022-11-22T21:20:50.957Z,19.65
2022-11-22T21:23:17.510Z,20.52
2022-11-22T21:25:44.006Z,19.33
2022-11-22T21:28:10.643Z,21.85
2022-11-22T21:30:37.266Z,19.85
2022-11-22T21:33:03.910Z,20.50
2022-11-22T21:35:30.417Z,18.17
2022-11-22T21:37:57.074Z,21.17
2022-11-22T21:40:23.594Z,19.50
2022-11-22T21:42:50.146Z,20.38
2022-11-22T21:45:16.729Z,21.15
2022-11-22T21:47:43.286Z,20.92
2022-11-22T21:50:11.833Z,19.42
2022-11-22T21:52:38.631Z,21.58
2022-11-22T21:55:05.680Z,18.73
2022-11-22T21:59:58.611Z,19.80
2022-11-22T22:02:25.163Z,20.10
2022-11-22T22:04:51.730Z,19.65
2022-11-22T22:07:44.749Z,20.17
2022-11-22T22:14:57.965Z,19.50
2022-11-22T22:17:24.529Z,20.52
2022-11-22T22:19:52.389Z,19.38
2022-11-22T22:22:19.010Z,19.55
2022-11-22T22:24:45.529Z,21.08
2022-11-22T22:27:12.140Z,17.92
2022-11-22T22:29:38.701Z,19.50
2022-11-22T22:32:10.346Z,18.75
2022-11-22T22:34:37.323Z,18.67
2022-11-22T22:37:03.960Z,18.90
2022-11-22T22:39:30.995Z,17.52
2022-11-22T22:41:57.831Z,19.27
2022-11-22T22:44:24.384Z,19.05
2022-11-22T22:46:50.929Z,18.10
2022-11-22T22:49:17.426Z,18.23
2022-11-22T22:51:43.969Z,17.67
2022-11-22T22:54:10.682Z,17.40
2022-11-22T22:56:37.247Z,17.77
2022-11-22T22:59:05.223Z,17.30
2022-11-22T23:01:32.050Z,17.15
2022-11-22T23:04:00.351Z,17.48
2022-11-22T23:06:34.570Z,18.08
2022-11-22T23:09:01.873Z,18.33
2022-11-22T23:11:49.213Z,17.73
2022-11-22T23:14:19.078Z,16.65
2022-11-22T23:16:45.760Z,17.58
2022-11-22T23:19:12.915Z,16.38
2022-11-22T23:21:39.477Z,16.10
2022-11-22T23:24:07.001Z,16.50
2022-11-22T23:26:34.666Z,18.10
2022-11-22T23:29:01.627Z,15.25
2022-11-22T23:31:28.473Z,17.77
2022-11-22T23:33:55.236Z,16.60
2022-11-22T23:36:22.993Z,18.05
2022-11-22T23:38:49.685Z,16.88
2022-11-22T23:41:21.477Z,17.42
2022-11-22T23:43:55.821Z,17.63
2022-11-22T23:46:26.444Z,16.33
2022-11-22T23:48:57.958Z,17.15
2022-11-22T23:51:26.621Z,17.08
2022-11-22T23:53:57.081Z,16.70
2022-11-22T23:56:24.664Z,18.02
2022-11-22T23:58:51.926Z,18.67
